createdAt,value
2023-12-20T00:02:06.682Z,8.90
2023-12-20T00:04:35.090Z,8.73
2023-12-20T00:07:03.954Z,7.63
2023-12-20T00:09:32.282Z,6.80
2023-12-20T00:12:00.593Z,5.97
2023-12-20T00:14:30.610Z,6.63
2023-12-20T00:17:01.938Z,7.30
2023-12-20T00:19:30.344Z,8.13
2023-12-20T00:22:00.701Z,7.87
2023-12-20T00:24:28.978Z,7.93
2023-12-20T00:26:57.245Z,8.70
2023-12-20T00:29:25.517Z,8.77
2023-12-20T00:31:55.203Z,7.80
2023-12-20T00:34:23.531Z,8.47
2023-12-20T00:36:51.863Z,8.93
2023-12-20T00:39:20.139Z,8.70
2023-12-20T00:41:48.411Z,10.27
2023-12-20T00:44:16.648Z,10.70
2023-12-20T00:46:44.891Z,12.07
2023-12-20T00:49:14.567Z,11.50
2023-12-20T00:51:42.938Z,9.63
2023-12-20T00:54:11.523Z,8.30
2023-12-20T00:56:39.760Z,6.37
2023-12-20T00:59:08.098Z,6.53
2023-12-20T01:01:36.410Z,6.17
2023-12-20T01:04:16.531Z,5.10
2023-12-20T01:06:53.009Z,4.30
2023-12-20T01:09:25.568Z,3.37
2023-12-20T01:11:53.858Z,3.23
2023-12-20T01:14:22.138Z,3.27
2023-12-20T01:16:50.425Z,3.23
2023-12-20T01:19:18.790Z,3.73
2023-12-20T01:21:48.970Z,4.07
2023-12-20T01:24:17.297Z,4.23
2023-12-20T01:26:45.623Z,4.50
2023-12-20T01:29:17.486Z,3.83
2023-12-20T01:31:51.696Z,3.63
2023-12-20T01:34:29.591Z,4.80
2023-12-20T01:36:59.301Z,4.47
2023-12-20T01:39:29.856Z,4.60
2023-12-20T01:42:00.150Z,3.80
2023-12-20T01:44:35.586Z,4.03
2023-12-20T01:47:04.249Z,4.20
2023-12-20T01:49:32.810Z,3.73
2023-12-20T01:52:02.595Z,4.87
2023-12-20T01:58:23.639Z,3.43
2023-12-20T02:00:52.008Z,3.47
2023-12-20T02:03:21.063Z,4.30
2023-12-20T02:05:50.037Z,3.93
2023-12-20T02:08:19.666Z,4.23
2023-12-20T02:10:48.215Z,3.97
2023-12-20T02:13:16.594Z,4.10
2023-12-20T02:15:45.079Z,4.70
2023-12-20T02:18:16.509Z,4.47
2023-12-20T02:20:44.986Z,5.20
2023-12-20T02:23:14.607Z,4.60
2023-12-20T02:25:42.914Z,5.07
2023-12-20T02:28:11.360Z,5.23
2023-12-20T02:30:39.749Z,5.07
2023-12-20T02:33:10.745Z,5.57
2023-12-20T02:35:42.416Z,5.30
2023-12-20T02:38:15.286Z,5.57
2023-12-20T02:40:49.529Z,5.80
2023-12-20T02:43:18.565Z,6.27
2023-12-20T02:45:47.002Z,6.20
2023-12-20T02:48:15.391Z,5.73
2023-12-20T02:50:43.813Z,5.97
2023-12-20T02:53:12.038Z,5.27
2023-12-20T02:55:39.308Z,5.60
2023-12-20T02:58:08.973Z,5.53
2023-12-20T03:00:37.266Z,5.93
2023-12-20T03:03:06.029Z,5.60
2023-12-20T03:05:34.400Z,5.10
2023-12-20T03:08:02.734Z,5.07
2023-12-20T03:10:31.037Z,7.07
2023-12-20T03:12:59.377Z,5.33
2023-12-20T03:15:28.998Z,5.87
2023-12-20T03:17:57.304Z,6.00
2023-12-20T03:20:27.021Z,6.13
2023-12-20T03:22:55.310Z,6.30
2023-12-20T03:25:23.744Z,5.67
2023-12-20T03:27:52.119Z,5.40
2023-12-20T03:30:20.451Z,5.67
2023-12-20T03:32:50.339Z,4.90
2023-12-20T03:35:18.632Z,6.77
2023-12-20T03:37:47.120Z,5.73
2023-12-20T03:40:15.712Z,6.03
2023-12-20T03:42:44.196Z,5.57
2023-12-20T03:45:12.543Z,5.80
2023-12-20T03:47:40.833Z,6.50
2023-12-20T03:50:11.074Z,6.17
2023-12-20T03:52:39.419Z,5.77
2023-12-20T03:55:08.145Z,5.43
2023-12-20T03:57:36.375Z,6.03
2023-12-20T04:00:04.914Z,5.83
2023-12-20T04:02:33.171Z,5.57
2023-12-20T04:05:07.148Z,6.03
2023-12-20T04:07:44.927Z,6.17
2023-12-20T04:10:13.556Z,5.43
2023-12-20T04:12:42.404Z,4.77
2023-12-20T04:15:12.953Z,5.20
2023-12-20T04:17:41.252Z,4.97
2023-12-20T04:20:10.540Z,4.90
2023-12-20T04:22:40.282Z,5.23
2023-12-20T04:25:08.817Z,4.40
2023-12-20T04:27:37.125Z,4.77
2023-12-20T04:30:05.561Z,5.30
2023-12-20T04:32:33.884Z,4.53
2023-12-20T04:35:14.597Z,4.97
2023-12-20T04:38:04.791Z,4.20
2023-12-20T04:40:33.133Z,4.97
2023-12-20T04:43:01.548Z,5.10
2023-12-20T04:45:29.846Z,4.30
2023-12-20T04:48:04.328Z,4.53
2023-12-20T04:50:36.320Z,4.03
2023-12-20T04:53:06.361Z,5.50
2023-12-20T04:55:34.698Z,4.10
2023-12-20T04:58:03.088Z,4.67
2023-12-20T05:00:31.392Z,4.57
2023-12-20T05:02:59.698Z,4.30
2023-12-20T05:05:28.016Z,4.00
2023-12-20T05:07:56.428Z,4.33
2023-12-20T05:10:27.274Z,4.40
2023-12-20T05:12:55.594Z,4.63
2023-12-20T05:15:23.844Z,4.87
2023-12-20T05:17:52.149Z,4.73
2023-12-20T05:20:20.575Z,4.90
2023-12-20T05:22:49.338Z,4.40
2023-12-20T05:25:18.015Z,5.27
2023-12-20T05:27:48.022Z,4.97
2023-12-20T05:30:16.668Z,4.87
2023-12-20T05:32:45.143Z,4.63
2023-12-20T05:35:13.648Z,4.93
2023-12-20T05:37:42.112Z,5.00
2023-12-20T05:40:20.962Z,5.00
2023-12-20T05:42:52.576Z,4.73
2023-12-20T05:45:20.826Z,4.83
2023-12-20T05:47:49.420Z,4.27
2023-12-20T05:50:18.096Z,4.93
2023-12-20T05:52:46.422Z,4.93
2023-12-20T05:55:14.813Z,4.93
2023-12-20T05:57:44.499Z,5.90
2023-12-20T06:00:15.511Z,4.80
2023-12-20T06:02:44.282Z,4.60
2023-12-20T06:05:12.710Z,4.50
2023-12-20T06:07:46.211Z,4.93
2023-12-20T06:10:25.272Z,4.90
2023-12-20T06:13:02.824Z,4.80
2023-12-20T06:15:32.539Z,5.67
2023-12-20T06:18:00.893Z,5.70
2023-12-20T06:20:29.291Z,4.77
2023-12-20T06:22:57.597Z,4.53
2023-12-20T06:25:25.985Z,4.93
2023-12-20T06:27:54.299Z,5.50
2023-12-20T06:30:22.738Z,4.73
2023-12-20T06:32:52.386Z,4.83
2023-12-20T06:35:35.921Z,4.73
2023-12-20T06:38:10.563Z,4.80
2023-12-20T06:40:38.872Z,4.37
2023-12-20T06:43:12.801Z,4.23
2023-12-20T06:45:49.509Z,5.30
2023-12-20T06:48:19.893Z,5.30
2023-12-20T06:50:49.091Z,5.83
2023-12-20T06:53:17.656Z,6.30
2023-12-20T06:55:45.998Z,6.27
2023-12-20T06:58:14.345Z,6.23
2023-12-20T07:00:42.784Z,6.00
2023-12-20T07:03:12.094Z,6.20
2023-12-20T07:05:41.874Z,6.77
2023-12-20T07:08:10.248Z,6.80
2023-12-20T07:10:38.656Z,6.70
2023-12-20T07:13:07.330Z,6.57
2023-12-20T07:15:41.704Z,5.33
2023-12-20T07:18:14.362Z,5.73
2023-12-20T07:20:44.180Z,5.83
2023-12-20T07:23:12.510Z,5.73
2023-12-20T07:25:40.871Z,6.13
2023-12-20T07:28:09.182Z,6.47
2023-12-20T07:30:37.527Z,7.13
2023-12-20T07:33:06.393Z,6.30
2023-12-20T07:35:34.892Z,6.90
2023-12-20T07:38:04.480Z,6.50
2023-12-20T07:40:32.714Z,6.70
2023-12-20T07:43:01.143Z,7.03
2023-12-20T07:45:29.416Z,7.03
2023-12-20T07:47:57.773Z,6.60
2023-12-20T07:50:26.300Z,6.57
2023-12-20T07:52:54.828Z,6.37
2023-12-20T07:55:24.485Z,6.47
2023-12-20T07:57:52.930Z,6.63
2023-12-20T08:00:21.634Z,6.93
2023-12-20T08:02:49.909Z,7.70
2023-12-20T08:05:19.193Z,6.90
2023-12-20T08:07:47.833Z,6.43
2023-12-20T08:10:16.929Z,6.17
2023-12-20T08:12:46.637Z,6.80
2023-12-20T08:15:15.879Z,7.10
2023-12-20T08:17:44.565Z,6.87
2023-12-20T08:20:15.918Z,6.00
2023-12-20T08:22:48.301Z,6.37
2023-12-20T08:25:17.073Z,5.90
2023-12-20T08:27:47.011Z,5.77
2023-12-20T08:30:15.499Z,5.50
2023-12-20T08:32:43.835Z,6.07
2023-12-20T08:35:12.251Z,5.70
2023-12-20T08:37:40.662Z,5.13
2023-12-20T08:40:09.478Z,5.00
2023-12-20T08:42:38.033Z,5.40
2023-12-20T08:45:08.328Z,4.97
2023-12-20T08:47:36.723Z,4.70
2023-12-20T08:50:05.241Z,4.60
2023-12-20T08:52:33.571Z,4.50
2023-12-20T08:55:01.931Z,4.50
2023-12-20T08:57:30.327Z,4.07
2023-12-20T08:59:58.727Z,3.80
2023-12-20T09:02:28.439Z,4.50
2023-12-20T09:04:56.892Z,4.40
2023-12-20T09:07:25.693Z,4.70
2023-12-20T09:09:54.140Z,3.97
2023-12-20T09:12:22.571Z,4.50
2023-12-20T09:14:51.754Z,4.30
2023-12-20T09:17:20.406Z,4.80
2023-12-20T09:19:50.094Z,4.10
2023-12-20T09:22:18.608Z,4.10
2023-12-20T09:24:47.036Z,3.67
2023-12-20T09:27:15.407Z,4.00
2023-12-20T09:29:43.840Z,4.00
2023-12-20T09:32:12.189Z,4.17
2023-12-20T09:34:40.752Z,4.20
2023-12-20T09:37:11.071Z,3.67
2023-12-20T09:39:39.380Z,4.30
2023-12-20T09:42:08.321Z,3.60
2023-12-20T09:44:37.445Z,3.83
2023-12-20T09:47:06.795Z,3.97
2023-12-20T09:49:35.643Z,3.80
2023-12-20T09:52:04.179Z,4.20
2023-12-20T09:54:33.875Z,4.03
2023-12-20T09:57:02.120Z,4.10
2023-12-20T09:59:30.451Z,3.90
2023-12-20T10:01:59.216Z,3.60
2023-12-20T10:04:30.481Z,3.73
2023-12-20T10:06:59.462Z,3.20
2023-12-20T10:09:28.602Z,3.57
2023-12-20T10:11:58.556Z,3.60
2023-12-20T10:14:26.853Z,3.83
2023-12-20T10:16:56.665Z,3.90
2023-12-20T10:19:25.147Z,4.00
2023-12-20T10:21:53.742Z,3.57
2023-12-20T10:24:23.221Z,3.97
2023-12-20T10:27:04.902Z,4.30
2023-12-20T10:29:34.966Z,4.03
2023-12-20T10:32:24.118Z,3.33
2023-12-20T10:34:52.697Z,3.37
2023-12-20T10:37:21.324Z,3.27
2023-12-20T10:39:52.722Z,3.07
2023-12-20T10:42:23.152Z,3.43
2023-12-20T10:44:52.810Z,3.40
2023-12-20T10:47:21.951Z,3.00
2023-12-20T10:49:50.335Z,3.13
2023-12-20T10:52:19.723Z,3.90
2023-12-20T10:54:48.094Z,3.73
2023-12-20T10:57:16.680Z,3.30
2023-12-20T10:59:51.377Z,3.20
2023-12-20T11:02:19.915Z,2.90
2023-12-20T11:04:53.863Z,3.00
2023-12-20T11:07:24.782Z,3.97
2023-12-20T11:10:00.727Z,3.40
2023-12-20T11:12:35.024Z,3.67
2023-12-20T11:15:05.767Z,3.00
2023-12-20T11:17:34.558Z,4.20
2023-12-20T11:20:12.094Z,4.03
2023-12-20T11:22:43.178Z,3.33
2023-12-20T11:25:12.959Z,3.10
2023-12-20T11:27:44.295Z,3.87
2023-12-20T11:30:18.252Z,3.13
2023-12-20T11:32:48.966Z,3.23
2023-12-20T11:35:21.749Z,3.20
2023-12-20T11:37:50.940Z,3.20
2023-12-20T11:40:20.257Z,3.53
2023-12-20T11:42:51.781Z,3.07
2023-12-20T11:45:23.269Z,3.30
2023-12-20T11:47:52.940Z,3.20
2023-12-20T11:50:21.746Z,3.20
2023-12-20T11:52:50.106Z,3.60
2023-12-20T11:55:18.462Z,3.33
2023-12-20T11:57:47.265Z,3.77
2023-12-20T12:00:16.513Z,3.27
2023-12-20T12:02:46.824Z,3.00
2023-12-20T12:05:16.850Z,3.90
2023-12-20T12:07:46.473Z,3.43
2023-12-20T12:10:14.965Z,3.27
2023-12-20T12:12:43.715Z,3.70
2023-12-20T12:15:12.277Z,4.23
2023-12-20T12:17:40.655Z,3.33
2023-12-20T12:20:11.518Z,3.20
2023-12-20T12:22:39.898Z,3.83
2023-12-20T12:25:15.335Z,3.43
2023-12-20T12:27:44.441Z,3.30
2023-12-20T12:30:14.075Z,2.93
2023-12-20T12:32:43.167Z,3.03
2023-12-20T12:35:13.151Z,3.80
2023-12-20T12:37:42.294Z,3.80
2023-12-20T12:40:12.496Z,3.13
2023-12-20T12:42:40.851Z,3.53
2023-12-20T12:45:09.516Z,3.63
2023-12-20T12:47:38.356Z,2.77
2023-12-20T12:50:07.288Z,3.10
2023-12-20T12:52:37.566Z,3.17
2023-12-20T12:55:06.645Z,3.73
2023-12-20T12:57:35.358Z,3.03
2023-12-20T13:00:04.953Z,3.40
2023-12-20T13:02:33.504Z,3.07
2023-12-20T13:05:03.836Z,3.40
2023-12-20T13:07:32.371Z,3.83
2023-12-20T13:10:02.363Z,3.50
2023-12-20T13:12:30.857Z,3.63
2023-12-20T13:14:59.168Z,3.67
2023-12-20T13:17:29.478Z,3.37
2023-12-20T13:19:58.909Z,3.50
2023-12-20T13:22:27.366Z,3.80
2023-12-20T13:24:55.654Z,3.63
2023-12-20T13:27:25.309Z,4.10
2023-12-20T13:29:53.652Z,3.60
2023-12-20T13:32:22.128Z,3.90
2023-12-20T13:34:51.110Z,4.33
2023-12-20T13:37:19.756Z,3.80
2023-12-20T13:39:48.143Z,3.57
2023-12-20T13:42:16.985Z,3.43
2023-12-20T13:44:47.972Z,4.13
2023-12-20T13:47:16.261Z,4.00
2023-12-20T13:49:44.688Z,5.10
2023-12-20T13:52:13.035Z,5.40
2023-12-20T13:54:41.344Z,4.60
2023-12-20T13:57:16.857Z,4.57
2023-12-20T13:59:58.132Z,4.10
2023-12-20T14:02:27.976Z,4.07
2023-12-20T14:04:56.381Z,5.10
2023-12-20T14:07:25.317Z,4.27
2023-12-20T14:09:53.686Z,4.60
2023-12-20T14:12:22.415Z,4.57
2023-12-20T14:14:50.669Z,4.10
2023-12-20T14:17:21.210Z,4.60
2023-12-20T14:19:49.560Z,4.90
2023-12-20T14:22:18.275Z,4.10
2023-12-20T14:24:46.843Z,4.63
2023-12-20T14:27:15.173Z,5.07
2023-12-20T14:29:43.467Z,4.93
2023-12-20T14:32:11.799Z,4.77
2023-12-20T14:34:41.582Z,4.10
2023-12-20T14:37:09.964Z,5.20
2023-12-20T14:39:40.470Z,5.03
2023-12-20T14:42:12.257Z,4.50
2023-12-20T14:44:40.536Z,5.10
2023-12-20T14:47:08.823Z,5.80
2023-12-20T14:49:36.826Z,4.00
2023-12-20T14:52:07.011Z,5.13
2023-12-20T14:54:35.515Z,4.50
2023-12-20T14:57:05.667Z,3.63
2023-12-20T14:59:34.516Z,4.93
2023-12-20T15:02:05.835Z,4.20
2023-12-20T15:04:34.515Z,4.57
2023-12-20T15:07:03.753Z,4.23
2023-12-20T15:09:33.434Z,4.43
2023-12-20T15:12:01.695Z,4.67
2023-12-20T15:14:30.030Z,5.20
2023-12-20T15:16:58.304Z,4.80
2023-12-20T15:19:26.669Z,5.07
2023-12-20T15:21:55.150Z,5.20
2023-12-20T15:24:29.516Z,4.87
2023-12-20T15:26:59.128Z,4.97
2023-12-20T15:29:27.396Z,4.50
2023-12-20T15:31:55.776Z,4.97
2023-12-20T15:34:24.141Z,5.33
2023-12-20T15:36:52.642Z,4.63
2023-12-20T15:39:20.996Z,4.50
2023-12-20T15:41:50.292Z,5.10
2023-12-20T15:44:19.890Z,4.13
2023-12-20T15:46:48.211Z,5.47
2023-12-20T15:49:19.124Z,4.47
2023-12-20T15:51:47.577Z,4.93
2023-12-20T15:54:15.937Z,4.67
2023-12-20T15:56:45.899Z,4.47
2023-12-20T15:59:14.247Z,5.57
2023-12-20T16:01:44.018Z,5.13
2023-12-20T16:04:22.072Z,4.47
2023-12-20T16:06:50.438Z,4.57
2023-12-20T16:09:18.824Z,5.20
2023-12-20T16:11:47.249Z,5.20
2023-12-20T16:14:21.449Z,4.93
2023-12-20T16:16:51.168Z,4.97
2023-12-20T16:19:19.532Z,4.20
2023-12-20T16:21:47.875Z,4.97
2023-12-20T16:24:16.339Z,5.17
2023-12-20T16:26:44.669Z,4.80
2023-12-20T16:29:14.495Z,4.90
2023-12-20T16:31:42.805Z,5.03
2023-12-20T16:34:12.616Z,4.40
2023-12-20T16:36:52.022Z,5.00
2023-12-20T16:39:23.959Z,4.43
2023-12-20T16:41:52.826Z,4.67
2023-12-20T16:44:21.152Z,5.30
2023-12-20T16:46:49.457Z,4.60
2023-12-20T16:49:19.341Z,5.07
2023-12-20T16:51:47.753Z,4.70
2023-12-20T16:54:16.176Z,4.93
2023-12-20T16:56:44.870Z,4.53
2023-12-20T16:59:13.158Z,4.53
2023-12-20T17:01:44.078Z,5.27
2023-12-20T17:04:12.609Z,4.87
2023-12-20T17:06:42.363Z,5.20
2023-12-20T17:09:10.641Z,5.00
2023-12-20T17:11:40.093Z,5.07
2023-12-20T17:14:10.230Z,5.17
2023-12-20T17:16:38.753Z,4.83
2023-12-20T17:19:07.099Z,4.77
2023-12-20T17:21:45.219Z,5.27
2023-12-20T17:24:20.848Z,4.33
2023-12-20T17:26:53.149Z,4.93
2023-12-20T17:29:21.477Z,5.00
2023-12-20T17:31:49.830Z,5.53
2023-12-20T17:34:18.365Z,4.40
2023-12-20T17:36:50.205Z,4.20
2023-12-20T17:39:19.930Z,5.37
2023-12-20T17:41:48.281Z,4.40
2023-12-20T17:44:38.765Z,5.23
2023-12-20T17:47:07.239Z,4.17
2023-12-20T17:49:38.404Z,4.10
2023-12-20T17:52:14.518Z,4.30
2023-12-20T17:54:46.203Z,4.50
2023-12-20T17:57:14.467Z,4.13
2023-12-20T17:59:42.840Z,4.03
2023-12-20T18:02:11.218Z,4.77
2023-12-20T18:04:39.542Z,4.67
2023-12-20T18:07:07.819Z,4.07
2023-12-20T18:09:36.141Z,5.70
2023-12-20T18:12:13.907Z,5.83
2023-12-20T18:14:48.570Z,4.87
2023-12-20T18:17:30.001Z,4.70
2023-12-20T18:20:00.756Z,6.20
2023-12-20T18:22:29.296Z,5.43
2023-12-20T18:24:57.771Z,5.43
2023-12-20T18:27:27.530Z,5.57
2023-12-20T18:30:04.936Z,5.13
2023-12-20T18:32:37.738Z,5.10
2023-12-20T18:35:06.493Z,5.20
2023-12-20T18:37:36.158Z,4.53
2023-12-20T18:40:05.721Z,4.87
2023-12-20T18:42:35.773Z,5.00
2023-12-20T18:45:05.098Z,5.53
2023-12-20T18:47:33.904Z,4.57
2023-12-20T18:50:03.986Z,4.70
2023-12-20T18:52:32.457Z,5.10
2023-12-20T18:55:00.875Z,5.13
2023-12-20T18:57:29.745Z,4.80
2023-12-20T19:00:02.374Z,5.10
2023-12-20T19:02:32.865Z,5.03
2023-12-20T19:05:01.358Z,4.60
2023-12-20T19:07:29.902Z,5.40
2023-12-20T19:09:58.334Z,4.30
2023-12-20T19:12:26.649Z,4.17
2023-12-20T19:14:54.973Z,4.03
2023-12-20T19:17:26.507Z,4.20
2023-12-20T19:19:55.083Z,4.40
2023-12-20T19:22:23.541Z,4.90
2023-12-20T19:24:51.879Z,4.27
2023-12-20T19:27:20.160Z,4.70
2023-12-20T19:29:48.436Z,4.90
2023-12-20T19:32:16.875Z,4.23
2023-12-20T19:34:46.674Z,4.70
2023-12-20T19:37:14.999Z,4.40
2023-12-20T19:39:45.039Z,4.43
2023-12-20T19:42:15.328Z,3.87
2023-12-20T19:44:43.698Z,3.70
2023-12-20T19:47:12.074Z,4.20
2023-12-20T19:49:41.590Z,3.30
2023-12-20T19:52:11.417Z,3.63
2023-12-20T19:54:39.704Z,3.63
2023-12-20T19:57:08.004Z,3.63
2023-12-20T19:59:36.397Z,3.63
2023-12-20T20:02:04.812Z,4.30
2023-12-20T20:04:33.238Z,3.63
2023-12-20T20:07:01.758Z,3.87
2023-12-20T20:09:31.461Z,3.03
2023-12-20T20:11:59.708Z,3.50
2023-12-20T20:14:28.614Z,3.53
2023-12-20T20:17:05.932Z,3.43
2023-12-20T20:19:42.097Z,3.87
2023-12-20T20:22:10.432Z,3.37
2023-12-20T20:24:45.929Z,3.60
2023-12-20T20:27:40.971Z,3.50
2023-12-20T20:30:09.889Z,2.97
2023-12-20T20:32:38.296Z,3.10
2023-12-20T20:35:07.029Z,3.00
2023-12-20T20:37:35.433Z,3.70
2023-12-20T20:40:05.436Z,3.00
2023-12-20T20:42:33.749Z,2.90
2023-12-20T20:45:02.052Z,3.50
2023-12-20T20:47:30.460Z,3.43
2023-12-20T20:49:58.993Z,2.77
2023-12-20T20:52:27.423Z,3.93
2023-12-20T20:54:55.760Z,3.00
2023-12-20T20:57:25.444Z,2.87
2023-12-20T20:59:53.758Z,3.37
2023-12-20T21:02:22.803Z,2.70
2023-12-20T21:04:51.121Z,2.60
2023-12-20T21:07:19.631Z,3.27
2023-12-20T21:09:49.580Z,3.27
2023-12-20T21:12:18.009Z,2.53
2023-12-20T21:14:47.722Z,2.60
2023-12-20T21:17:16.189Z,2.73
2023-12-20T21:19:44.741Z,3.00
2023-12-20T21:22:13.267Z,3.27
2023-12-20T21:24:41.763Z,3.20
2023-12-20T21:27:11.945Z,2.63
2023-12-20T21:29:40.351Z,3.10
2023-12-20T21:32:10.317Z,3.40
2023-12-20T21:34:38.651Z,3.27
2023-12-20T21:37:07.128Z,2.73
2023-12-20T21:39:35.568Z,3.10
2023-12-20T21:42:03.923Z,2.93
2023-12-20T21:44:32.242Z,3.00
2023-12-20T21:47:00.540Z,3.10
2023-12-20T21:49:30.547Z,3.00
2023-12-20T21:51:59.502Z,3.20
2023-12-20T21:54:27.957Z,3.47
2023-12-20T21:56:57.332Z,3.57
2023-12-20T21:59:27.656Z,2.73
2023-12-20T22:01:56.163Z,2.97
2023-12-20T22:04:24.705Z,2.57
2023-12-20T22:06:54.458Z,3.40
2023-12-20T22:09:22.861Z,2.77
2023-12-20T22:11:51.240Z,2.80
2023-12-20T22:14:19.607Z,2.60
2023-12-20T22:16:47.974Z,2.50
2023-12-20T22:19:16.399Z,2.63
2023-12-20T22:21:44.719Z,2.70
2023-12-20T22:24:14.429Z,2.47
2023-12-20T22:26:42.996Z,2.50
2023-12-20T22:29:11.299Z,2.97
2023-12-20T22:31:44.958Z,2.53
2023-12-20T22:34:13.364Z,3.00
2023-12-20T22:36:41.778Z,3.10
2023-12-20T22:39:10.192Z,3.23
2023-12-20T22:41:40.246Z,3.10
2023-12-20T22:44:09.518Z,3.50
2023-12-20T22:46:37.901Z,2.80
2023-12-20T22:49:06.368Z,2.73
2023-12-20T22:51:35.212Z,3.20
2023-12-20T22:54:03.639Z,2.57
2023-12-20T22:56:31.935Z,2.37
2023-12-20T22:59:01.630Z,2.50
2023-12-20T23:01:30.086Z,2.57
2023-12-20T23:03:58.480Z,2.73
2023-12-20T23:06:26.829Z,2.43
2023-12-20T23:08:55.714Z,3.10
2023-12-20T23:11:24.028Z,2.70
2023-12-20T23:13:54.525Z,3.13
2023-12-20T23:16:28.271Z,3.10
2023-12-20T23:18:56.568Z,3.50
2023-12-20T23:21:24.947Z,3.63
2023-12-20T23:23:53.244Z,3.50
2023-12-20T23:26:21.732Z,3.50
2023-12-20T23:28:49.957Z,3.27
2023-12-20T23:31:25.110Z,3.20
2023-12-20T23:33:55.194Z,3.10
2023-12-20T23:36:23.626Z,3.00
2023-12-20T23:38:51.992Z,3.60
2023-12-20T23:41:20.320Z,3.07
2023-12-20T23:43:48.612Z,2.90
2023-12-20T23:46:17.225Z,3.00
2023-12-20T23:48:45.526Z,2.90
2023-12-20T23:51:15.201Z,2.83
2023-12-20T23:53:43.494Z,2.87
2023-12-20T23:56:20.650Z,2.90
2023-12-20T23:58:55.639Z,2.87
